createdAt,value
2023-11-30T00:01:26.415Z,-0.44
2023-11-30T00:03:57.863Z,-0.43
2023-11-30T00:06:29.288Z,-0.41
2023-11-30T00:08:58.607Z,-0.41
2023-11-30T00:11:27.592Z,-0.39
2023-11-30T00:14:01.721Z,-0.37
2023-11-30T00:16:28.332Z,-0.38
2023-11-30T00:18:57.212Z,-0.38
2023-11-30T00:21:23.836Z,-0.38
2023-11-30T00:23:50.456Z,-0.39
2023-11-30T00:26:17.039Z,-0.39
2023-11-30T00:28:45.875Z,-0.39
2023-11-30T00:31:14.723Z,-0.40
2023-11-30T00:33:41.323Z,-0.41
2023-11-30T00:36:11.243Z,-0.42
2023-11-30T00:38:37.772Z,-0.43
2023-11-30T00:41:06.564Z,-0.44
2023-11-30T00:43:33.118Z,-0.45
2023-11-30T00:46:06.810Z,-0.47
2023-11-30T00:48:36.406Z,-0.47
2023-11-30T00:51:03.609Z,-0.50
2023-11-30T00:53:32.710Z,-0.50
2023-11-30T00:56:01.677Z,-0.51
2023-11-30T00:58:29.857Z,-0.51
2023-11-30T01:00:59.673Z,-0.53
2023-11-30T01:03:26.371Z,-0.51
2023-11-30T01:05:52.945Z,-0.52
2023-11-30T01:08:21.959Z,-0.53
2023-11-30T01:10:51.026Z,-0.52
2023-11-30T01:13:17.617Z,-0.50
2023-11-30T01:15:44.287Z,-0.48
2023-11-30T01:18:11.510Z,-0.47
2023-11-30T01:20:38.116Z,-0.46
2023-11-30T01:23:05.665Z,-0.46
2023-11-30T01:25:35.472Z,-0.46
2023-11-30T01:28:02.018Z,-0.49
2023-11-30T01:30:28.560Z,-0.50
2023-11-30T01:32:55.279Z,-0.52
2023-11-30T01:35:21.955Z,-0.53
2023-11-30T01:37:48.465Z,-0.57
2023-11-30T01:40:19.894Z,-0.58
2023-11-30T01:42:46.390Z,-0.60
2023-11-30T01:45:15.687Z,-0.60
2023-11-30T01:47:44.543Z,-0.62
2023-11-30T01:50:11.720Z,-0.62
2023-11-30T01:52:38.633Z,-0.63
2023-11-30T01:55:06.170Z,-0.61
2023-11-30T01:57:32.858Z,-0.61
2023-11-30T02:00:01.974Z,-0.61
2023-11-30T02:02:29.884Z,-0.61
2023-11-30T02:04:56.399Z,-0.61
2023-11-30T02:07:25.266Z,-0.59
2023-11-30T02:09:51.868Z,-0.56
2023-11-30T02:12:20.916Z,-0.54
2023-11-30T02:14:50.060Z,-0.54
2023-11-30T02:17:16.989Z,-0.54
2023-11-30T02:19:43.646Z,-0.52
2023-11-30T02:22:12.465Z,-0.53
2023-11-30T02:24:39.001Z,-0.52
2023-11-30T02:27:05.699Z,-0.53
2023-11-30T02:29:32.269Z,-0.53
2023-11-30T02:32:01.183Z,-0.52
2023-11-30T02:34:30.193Z,-0.52
2023-11-30T02:36:56.795Z,-0.51
2023-11-30T02:39:23.354Z,-0.51
2023-11-30T02:41:54.953Z,-0.51
2023-11-30T02:44:21.522Z,-0.51
2023-11-30T02:46:50.492Z,-0.52
2023-11-30T02:49:17.925Z,-0.52
2023-11-30T02:51:46.794Z,-0.52
2023-11-30T02:54:13.445Z,-0.54
2023-11-30T02:56:41.299Z,-0.54
2023-11-30T02:59:07.816Z,-0.52
2023-11-30T03:01:34.509Z,-0.52
2023-11-30T03:04:03.450Z,-0.53
2023-11-30T03:06:35.234Z,-0.53
2023-11-30T03:09:01.882Z,-0.53
2023-11-30T03:11:28.436Z,-0.55
2023-11-30T03:13:54.975Z,-0.55
2023-11-30T03:16:28.692Z,-0.56
2023-11-30T03:19:10.188Z,-0.55
2023-11-30T03:21:44.988Z,-0.53
2023-11-30T03:24:12.331Z,-0.55
2023-11-30T03:26:38.947Z,-0.55
2023-11-30T03:29:08.023Z,-0.54
2023-11-30T03:31:40.360Z,-0.52
2023-11-30T03:34:09.973Z,-0.50
2023-11-30T03:36:36.742Z,-0.49
2023-11-30T03:39:03.868Z,-0.47
2023-11-30T03:41:32.773Z,-0.46
2023-11-30T03:43:59.387Z,-0.47
2023-11-30T03:46:26.121Z,-0.49
2023-11-30T03:48:56.005Z,-0.47
2023-11-30T03:51:22.932Z,-0.49
2023-11-30T03:53:49.530Z,-0.49
2023-11-30T03:56:20.950Z,-0.49
2023-11-30T03:58:49.936Z,-0.48
2023-11-30T04:01:23.957Z,-0.49
2023-11-30T04:03:53.164Z,-0.47
2023-11-30T04:06:25.438Z,-0.48
2023-11-30T04:08:53.232Z,-0.48
2023-11-30T04:11:22.352Z,-0.48
2023-11-30T04:13:49.172Z,-0.47
2023-11-30T04:16:18.982Z,-0.48
2023-11-30T04:18:48.114Z,-0.49
2023-11-30T04:21:17.118Z,-0.48
2023-11-30T04:23:43.663Z,-0.48
2023-11-30T04:26:11.046Z,-0.48
2023-11-30T04:28:40.157Z,-0.46
2023-11-30T04:31:07.447Z,-0.44
2023-11-30T04:33:34.365Z,-0.41
2023-11-30T04:36:00.945Z,-0.39
2023-11-30T04:38:30.643Z,-0.37
2023-11-30T04:40:57.282Z,-0.34
2023-11-30T04:43:26.882Z,-0.31
2023-11-30T04:45:54.055Z,-0.31
2023-11-30T04:48:20.967Z,-0.31
2023-11-30T04:50:50.053Z,-0.30
2023-11-30T04:53:16.620Z,-0.28
2023-11-30T04:55:48.052Z,-0.26
2023-11-30T04:58:15.255Z,-0.27
2023-11-30T05:00:43.258Z,-0.27
2023-11-30T05:03:10.054Z,-0.25
2023-11-30T05:05:39.013Z,-0.24
2023-11-30T05:08:05.528Z,-0.23
2023-11-30T05:10:34.658Z,-0.23
2023-11-30T05:13:01.392Z,-0.24
2023-11-30T05:15:31.166Z,-0.23
2023-11-30T05:17:57.831Z,-0.22
2023-11-30T05:20:24.348Z,-0.22
2023-11-30T05:22:50.926Z,-0.21
2023-11-30T05:25:17.666Z,-0.20
2023-11-30T05:27:44.216Z,-0.19
2023-11-30T05:30:11.049Z,-0.19
2023-11-30T05:32:40.204Z,-0.17
2023-11-30T05:35:09.532Z,-0.15
2023-11-30T05:37:36.125Z,-0.14
2023-11-30T05:40:02.686Z,-0.14
2023-11-30T05:42:29.442Z,-0.13
2023-11-30T05:44:56.192Z,-0.13
2023-11-30T05:47:24.241Z,-0.14
2023-11-30T05:49:51.627Z,-0.13
2023-11-30T05:52:18.264Z,-0.13
2023-11-30T05:54:44.778Z,-0.13
2023-11-30T05:57:11.391Z,-0.11
2023-11-30T05:59:40.347Z,-0.10
2023-11-30T06:02:12.172Z,-0.05
2023-11-30T06:04:39.853Z,-0.08
2023-11-30T06:07:06.729Z,-0.07
2023-11-30T06:09:33.222Z,-0.07
2023-11-30T06:12:02.585Z,-0.07
2023-11-30T06:14:31.478Z,-0.05
2023-11-30T06:16:58.361Z,-0.05
2023-11-30T06:19:25.374Z,-0.06
2023-11-30T06:21:51.941Z,-0.05
2023-11-30T06:24:20.532Z,-0.05
2023-11-30T06:26:47.022Z,-0.05
2023-11-30T06:29:17.117Z,-0.05
2023-11-30T06:31:43.628Z,-0.04
2023-11-30T06:34:15.093Z,-0.04
2023-11-30T06:36:41.698Z,-0.03
2023-11-30T06:39:10.553Z,-0.02
2023-11-30T06:41:39.637Z,-0.02
2023-11-30T06:44:08.429Z,-0.02
2023-11-30T06:46:36.596Z,0.00
2023-11-30T06:49:05.672Z,-0.01
2023-11-30T06:51:37.595Z,0.02
2023-11-30T06:54:04.531Z,0.02
2023-11-30T06:56:31.683Z,0.02
2023-11-30T06:58:59.127Z,0.01
2023-11-30T07:01:30.813Z,-0.01
2023-11-30T07:03:59.953Z,0.02
2023-11-30T07:06:26.986Z,0.02
2023-11-30T07:08:58.521Z,0.01
2023-11-30T07:11:27.400Z,-0.01
2023-11-30T07:13:54.580Z,-0.04
2023-11-30T07:16:21.233Z,-0.05
2023-11-30T07:18:50.980Z,-0.07
2023-11-30T07:21:17.685Z,-0.10
2023-11-30T07:23:44.684Z,-0.12
2023-11-30T07:26:15.358Z,-0.17
2023-11-30T07:28:43.073Z,-0.17
2023-11-30T07:31:18.498Z,-0.21
2023-11-30T07:33:45.146Z,-0.23
2023-11-30T07:36:15.424Z,-0.26
2023-11-30T07:38:42.003Z,-0.26
2023-11-30T07:41:09.292Z,-0.21
2023-11-30T07:43:36.574Z,-0.22
2023-11-30T07:46:05.413Z,-0.25
2023-11-30T07:48:34.025Z,-0.32
2023-11-30T07:51:00.711Z,-0.34
2023-11-30T07:53:27.367Z,-0.38
2023-11-30T07:55:58.523Z,-0.42
2023-11-30T07:58:27.504Z,-0.42
2023-11-30T08:00:54.446Z,-0.43
2023-11-30T08:03:23.872Z,-0.44
2023-11-30T08:05:50.409Z,-0.43
2023-11-30T08:08:20.283Z,-0.44
2023-11-30T08:10:49.228Z,-0.44
2023-11-30T08:13:18.741Z,-0.43
2023-11-30T08:15:45.616Z,-0.43
2023-11-30T08:18:15.450Z,-0.41
2023-11-30T08:20:44.070Z,-0.40
2023-11-30T08:23:13.236Z,-0.37
2023-11-30T08:25:40.143Z,-0.35
2023-11-30T08:28:09.598Z,-0.36
2023-11-30T08:30:37.363Z,-0.37
2023-11-30T08:33:07.038Z,-0.37
2023-11-30T08:35:36.282Z,-0.39
2023-11-30T08:38:02.940Z,-0.41
2023-11-30T08:40:29.516Z,-0.43
2023-11-30T08:42:56.048Z,-0.47
2023-11-30T08:45:22.842Z,-0.50
2023-11-30T08:47:49.484Z,-0.53
2023-11-30T08:50:17.469Z,-0.54
2023-11-30T08:52:48.889Z,-0.52
2023-11-30T08:55:18.094Z,-0.51
2023-11-30T08:57:49.934Z,-0.48
2023-11-30T09:00:20.250Z,-0.45
2023-11-30T09:02:47.228Z,-0.43
2023-11-30T09:05:13.949Z,-0.40
2023-11-30T09:07:43.562Z,-0.38
2023-11-30T09:10:10.521Z,-0.37
2023-11-30T09:12:37.598Z,-0.34
2023-11-30T09:15:10.136Z,-0.33
2023-11-30T09:17:37.201Z,-0.31
2023-11-30T09:20:09.172Z,-0.28
2023-11-30T09:22:36.340Z,-0.25
2023-11-30T09:25:06.120Z,-0.22
2023-11-30T09:27:33.346Z,-0.19
2023-11-30T09:30:02.482Z,-0.16
2023-11-30T09:32:29.092Z,-0.12
2023-11-30T09:34:56.314Z,-0.11
2023-11-30T09:37:22.886Z,-0.06
2023-11-30T09:39:52.325Z,-0.03
2023-11-30T09:42:19.819Z,0.04
2023-11-30T09:44:46.794Z,0.06
2023-11-30T09:47:18.138Z,0.05
2023-11-30T09:49:44.848Z,0.05
2023-11-30T09:52:11.878Z,0.06
2023-11-30T09:54:41.112Z,0.07
2023-11-30T09:57:11.001Z,0.10
2023-11-30T09:59:40.092Z,0.16
2023-11-30T10:02:10.818Z,0.21
2023-11-30T10:04:40.754Z,0.31
2023-11-30T10:07:08.585Z,0.36
2023-11-30T10:09:37.105Z,0.44
2023-11-30T10:12:05.014Z,0.53
2023-11-30T10:14:34.328Z,0.61
2023-11-30T10:17:03.953Z,0.65
2023-11-30T10:19:31.797Z,0.67
2023-11-30T10:22:01.434Z,0.68
2023-11-30T10:24:31.588Z,0.69
2023-11-30T10:27:09.832Z,0.73
2023-11-30T10:29:43.140Z,0.74
2023-11-30T10:32:16.518Z,0.76
2023-11-30T10:34:58.185Z,0.79
2023-11-30T10:37:27.704Z,0.84
2023-11-30T10:40:04.924Z,0.87
2023-11-30T10:42:34.400Z,0.87
2023-11-30T10:45:12.593Z,0.93
2023-11-30T10:47:42.627Z,1.03
2023-11-30T10:50:10.888Z,1.10
2023-11-30T10:52:37.611Z,1.15
2023-11-30T10:55:13.503Z,1.16
2023-11-30T10:57:47.733Z,1.18
2023-11-30T11:00:16.357Z,1.22
2023-11-30T11:02:48.577Z,1.21
2023-11-30T11:05:19.627Z,1.21
2023-11-30T11:07:55.546Z,1.25
2023-11-30T11:10:28.088Z,1.30
2023-11-30T11:13:00.237Z,1.36
2023-11-30T11:15:29.904Z,1.40
2023-11-30T11:18:05.116Z,1.41
2023-11-30T11:20:36.629Z,1.46
2023-11-30T11:23:14.920Z,1.55
2023-11-30T11:25:47.763Z,1.64
2023-11-30T11:28:18.574Z,1.74
2023-11-30T11:30:54.741Z,1.75
2023-11-30T11:33:26.304Z,1.75
2023-11-30T11:35:55.460Z,1.75
2023-11-30T11:38:22.135Z,1.71
2023-11-30T11:40:51.314Z,1.72
2023-11-30T11:43:20.497Z,1.69
2023-11-30T11:45:49.537Z,1.66
2023-11-30T11:48:18.494Z,1.61
2023-11-30T11:50:56.202Z,1.60
2023-11-30T11:53:23.474Z,1.54
2023-11-30T11:55:50.058Z,1.42
2023-11-30T11:58:16.734Z,1.47
2023-11-30T12:00:56.526Z,1.50
2023-11-30T12:03:24.170Z,1.50
2023-11-30T12:05:52.650Z,1.52
2023-11-30T12:08:36.325Z,1.49
2023-11-30T12:11:03.082Z,1.51
2023-11-30T12:13:30.564Z,1.54
2023-11-30T12:15:59.689Z,1.45
2023-11-30T12:18:26.835Z,1.41
2023-11-30T12:20:54.196Z,1.39
2023-11-30T12:23:20.781Z,1.38
2023-11-30T12:25:47.361Z,1.36
2023-11-30T12:28:17.347Z,1.28
2023-11-30T12:30:47.267Z,1.19
2023-11-30T12:33:15.665Z,1.19
2023-11-30T12:35:47.138Z,1.15
2023-11-30T12:38:17.224Z,1.18
2023-11-30T12:40:46.372Z,1.22
2023-11-30T12:43:13.003Z,1.29
2023-11-30T12:45:40.087Z,1.27
2023-11-30T12:48:06.809Z,1.32
2023-11-30T12:50:33.561Z,1.37
2023-11-30T12:53:00.267Z,1.40
2023-11-30T12:55:26.995Z,1.43
2023-11-30T12:57:57.175Z,1.38
2023-11-30T13:00:24.172Z,1.38
2023-11-30T13:02:51.047Z,1.42
2023-11-30T13:05:22.686Z,1.38
2023-11-30T13:07:51.109Z,1.31
2023-11-30T13:10:18.624Z,1.33
2023-11-30T13:12:48.929Z,1.37
2023-11-30T13:15:18.190Z,1.36
2023-11-30T13:17:47.057Z,1.38
2023-11-30T13:20:14.808Z,1.37
2023-11-30T13:22:44.483Z,1.39
2023-11-30T13:25:12.552Z,1.39
2023-11-30T13:27:39.147Z,1.38
2023-11-30T13:30:06.257Z,1.40
2023-11-30T13:32:37.431Z,1.38
2023-11-30T13:35:06.472Z,1.37
2023-11-30T13:37:38.046Z,1.30
2023-11-30T13:40:08.389Z,1.25
2023-11-30T13:42:34.997Z,1.24
2023-11-30T13:45:02.475Z,1.20
2023-11-30T13:47:31.545Z,1.18
2023-11-30T13:50:00.427Z,1.21
2023-11-30T13:52:28.629Z,1.21
2023-11-30T13:54:55.315Z,1.22
2023-11-30T13:57:21.870Z,1.20
2023-11-30T13:59:48.434Z,1.19
2023-11-30T14:02:15.052Z,1.13
2023-11-30T14:04:43.868Z,1.05
2023-11-30T14:07:13.592Z,1.01
2023-11-30T14:09:42.716Z,0.91
2023-11-30T14:12:11.957Z,0.93
2023-11-30T14:14:39.944Z,0.92
2023-11-30T14:17:06.589Z,0.89
2023-11-30T14:19:34.916Z,0.88
2023-11-30T14:22:04.344Z,0.82
2023-11-30T14:24:33.320Z,0.78
2023-11-30T14:27:02.540Z,0.73
2023-11-30T14:29:29.073Z,0.71
2023-11-30T14:31:55.708Z,0.73
2023-11-30T14:34:22.387Z,0.73
2023-11-30T14:36:49.073Z,0.72
2023-11-30T14:39:16.108Z,0.72
2023-11-30T14:41:42.853Z,0.71
2023-11-30T14:44:11.716Z,0.66
2023-11-30T14:46:38.367Z,0.64
2023-11-30T14:49:06.190Z,0.62
2023-11-30T14:51:32.806Z,0.60
2023-11-30T14:53:59.993Z,0.61
2023-11-30T14:56:26.637Z,0.62
2023-11-30T14:58:59.806Z,0.64
2023-11-30T15:01:26.494Z,0.62
2023-11-30T15:03:53.215Z,0.63
2023-11-30T15:06:19.890Z,0.61
2023-11-30T15:08:46.446Z,0.55
2023-11-30T15:11:13.052Z,0.52
2023-11-30T15:13:39.681Z,0.52
2023-11-30T15:16:06.686Z,0.51
2023-11-30T15:18:33.792Z,0.50
2023-11-30T15:21:03.359Z,0.47
2023-11-30T15:23:29.944Z,0.42
2023-11-30T15:25:56.914Z,0.42
2023-11-30T15:28:24.018Z,0.41
2023-11-30T15:30:55.414Z,0.40
2023-11-30T15:33:24.430Z,0.38
2023-11-30T15:35:51.124Z,0.35
2023-11-30T15:38:17.673Z,0.34
2023-11-30T15:40:44.223Z,0.31
2023-11-30T15:43:12.981Z,0.33
2023-11-30T15:45:39.632Z,0.29
2023-11-30T15:48:07.199Z,0.28
2023-11-30T15:50:33.974Z,0.28
2023-11-30T15:53:03.848Z,0.27
2023-11-30T15:55:30.491Z,0.29
2023-11-30T15:58:06.045Z,0.26
2023-11-30T16:00:35.906Z,0.22
2023-11-30T16:03:10.332Z,0.17
2023-11-30T16:05:37.660Z,0.12
2023-11-30T16:08:04.523Z,0.11
2023-11-30T16:10:33.374Z,0.13
2023-11-30T16:12:59.995Z,0.13
2023-11-30T16:15:27.383Z,0.12
2023-11-30T16:17:58.386Z,0.10
2023-11-30T16:20:25.562Z,0.08
2023-11-30T16:22:52.191Z,0.07
2023-11-30T16:25:18.838Z,0.09
2023-11-30T16:27:45.604Z,0.10
2023-11-30T16:30:16.008Z,0.10
2023-11-30T16:32:42.843Z,0.06
2023-11-30T16:35:09.637Z,0.03
2023-11-30T16:37:36.224Z,0.02
2023-11-30T16:40:05.887Z,-0.01
2023-11-30T16:42:33.024Z,-0.04
2023-11-30T16:45:02.728Z,-0.01
2023-11-30T16:47:29.412Z,0.01
2023-11-30T16:49:58.646Z,0.01
2023-11-30T16:52:25.287Z,-0.03
2023-11-30T16:54:51.980Z,-0.03
2023-11-30T16:57:23.480Z,-0.08
2023-11-30T16:59:52.427Z,-0.09
2023-11-30T17:02:19.063Z,-0.10
2023-11-30T17:04:45.689Z,-0.12
2023-11-30T17:07:14.580Z,-0.16
2023-11-30T17:09:47.674Z,-0.19
2023-11-30T17:12:14.404Z,-0.29
2023-11-30T17:14:43.587Z,-0.32
2023-11-30T17:17:10.215Z,-0.34
2023-11-30T17:19:39.179Z,-0.34
2023-11-30T17:22:05.877Z,-0.35
2023-11-30T17:24:34.542Z,-0.37
2023-11-30T17:27:01.123Z,-0.37
2023-11-30T17:29:27.697Z,-0.41
2023-11-30T17:31:54.316Z,-0.44
2023-11-30T17:34:23.290Z,-0.45
2023-11-30T17:36:49.939Z,-0.47
2023-11-30T17:39:18.781Z,-0.43
2023-11-30T17:41:45.745Z,-0.42
2023-11-30T17:44:14.890Z,-0.42
2023-11-30T17:46:45.053Z,-0.44
2023-11-30T17:49:12.444Z,-0.50
2023-11-30T17:51:46.391Z,-0.57
2023-11-30T17:54:12.939Z,-0.56
2023-11-30T17:56:39.825Z,-0.56
2023-11-30T17:59:06.452Z,-0.51
2023-11-30T18:01:33.074Z,-0.52
2023-11-30T18:03:59.695Z,-0.53
2023-11-30T18:06:29.143Z,-0.51
2023-11-30T18:08:55.987Z,-0.51
2023-11-30T18:11:22.667Z,-0.50
2023-11-30T18:13:49.479Z,-0.51
2023-11-30T18:16:16.398Z,-0.57
2023-11-30T18:18:45.786Z,-0.55
2023-11-30T18:21:14.940Z,-0.51
2023-11-30T18:23:41.638Z,-0.50
2023-11-30T18:26:08.219Z,-0.49
2023-11-30T18:28:34.824Z,-0.51
2023-11-30T18:31:12.253Z,-0.52
2023-11-30T18:33:49.402Z,-0.51
2023-11-30T18:36:16.154Z,-0.53
2023-11-30T18:38:51.360Z,-0.56
2023-11-30T18:41:24.477Z,-0.58
2023-11-30T18:43:53.561Z,-0.61
2023-11-30T18:46:20.250Z,-0.61
2023-11-30T18:48:47.054Z,-0.57
2023-11-30T18:51:14.158Z,-0.59
2023-11-30T18:53:43.062Z,-0.60
2023-11-30T18:56:12.139Z,-0.58
2023-11-30T18:58:39.675Z,-0.57
2023-11-30T19:01:06.537Z,-0.59
2023-11-30T19:03:33.251Z,-0.60
2023-11-30T19:05:59.932Z,-0.62
2023-11-30T19:08:26.713Z,-0.64
2023-11-30T19:10:55.355Z,-0.63
2023-11-30T19:13:21.887Z,-0.63
2023-11-30T19:15:48.505Z,-0.67
2023-11-30T19:18:19.768Z,-0.73
2023-11-30T19:20:48.817Z,-0.74
2023-11-30T19:23:17.786Z,-0.78
2023-11-30T19:25:46.748Z,-0.76
2023-11-30T19:28:13.363Z,-0.71
2023-11-30T19:30:40.030Z,-0.70
2023-11-30T19:33:06.733Z,-0.70
2023-11-30T19:35:36.576Z,-0.71
2023-11-30T19:38:03.168Z,-0.73
2023-11-30T19:40:29.871Z,-0.74
2023-11-30T19:42:58.914Z,-0.74
2023-11-30T19:45:27.938Z,-0.72
2023-11-30T19:47:55.136Z,-0.77
2023-11-30T19:50:21.863Z,-0.80
2023-11-30T19:52:48.776Z,-0.82
2023-11-30T19:55:16.009Z,-0.82
2023-11-30T19:57:45.315Z,-0.79
2023-11-30T20:00:12.254Z,-0.78
2023-11-30T20:02:39.031Z,-0.82
2023-11-30T20:05:06.044Z,-0.85
2023-11-30T20:07:35.021Z,-0.83
2023-11-30T20:10:01.622Z,-0.84
2023-11-30T20:12:29.079Z,-0.84
2023-11-30T20:14:55.861Z,-0.81
2023-11-30T20:17:22.452Z,-0.82
2023-11-30T20:19:51.478Z,-0.84
2023-11-30T20:22:21.216Z,-0.87
2023-11-30T20:24:47.722Z,-0.87
2023-11-30T20:27:14.340Z,-0.87
2023-11-30T20:29:43.229Z,-0.91
2023-11-30T20:32:12.307Z,-0.93
2023-11-30T20:34:41.109Z,-0.96
2023-11-30T20:37:07.814Z,-0.97
2023-11-30T20:39:35.682Z,-0.96
2023-11-30T20:42:04.137Z,-0.98
2023-11-30T20:44:33.005Z,-1.02
2023-11-30T20:47:00.527Z,-1.06
2023-11-30T20:49:27.269Z,-1.10
2023-11-30T20:51:54.018Z,-1.09
2023-11-30T20:54:20.568Z,-1.08
2023-11-30T20:56:48.650Z,-1.10
2023-11-30T20:59:18.374Z,-1.14
2023-11-30T21:01:45.270Z,-1.18
2023-11-30T21:04:14.292Z,-1.18
2023-11-30T21:06:40.947Z,-1.19
2023-11-30T21:09:10.086Z,-1.22
2023-11-30T21:11:41.752Z,-1.20
2023-11-30T21:14:13.141Z,-1.18
2023-11-30T21:16:39.772Z,-1.27
2023-11-30T21:19:06.643Z,-1.37
2023-11-30T21:21:38.071Z,-1.34
2023-11-30T21:24:05.072Z,-1.33
2023-11-30T21:26:31.749Z,-1.40
2023-11-30T21:29:00.863Z,-1.39
2023-11-30T21:31:30.044Z,-1.34
2023-11-30T21:33:56.790Z,-1.37
2023-11-30T21:36:25.851Z,-1.42
2023-11-30T21:38:54.726Z,-1.42
2023-11-30T21:41:21.541Z,-1.41
2023-11-30T21:43:48.502Z,-1.37
2023-11-30T21:46:18.010Z,-1.36
2023-11-30T21:48:47.261Z,-1.36
2023-11-30T21:51:13.880Z,-1.31
2023-11-30T21:53:42.805Z,-1.31
2023-11-30T21:56:12.816Z,-1.32
2023-11-30T21:58:39.623Z,-1.32
2023-11-30T22:01:06.900Z,-1.36
2023-11-30T22:03:35.906Z,-1.35
2023-11-30T22:06:04.912Z,-1.35
2023-11-30T22:08:34.032Z,-1.34
2023-11-30T22:11:00.568Z,-1.32
2023-11-30T22:13:27.090Z,-1.34
2023-11-30T22:15:59.814Z,-1.34
2023-11-30T22:18:37.465Z,-1.30
2023-11-30T22:21:04.626Z,-1.33
2023-11-30T22:23:36.052Z,-1.32
2023-11-30T22:26:05.248Z,-1.31
2023-11-30T22:28:31.866Z,-1.32
2023-11-30T22:30:59.746Z,-1.34
2023-11-30T22:33:28.981Z,-1.36
2023-11-30T22:35:55.655Z,-1.41
2023-11-30T22:38:22.371Z,-1.42
2023-11-30T22:40:53.772Z,-1.42
2023-11-30T22:43:20.465Z,-1.44
2023-11-30T22:45:47.048Z,-1.45
2023-11-30T22:48:15.948Z,-1.45
2023-11-30T22:50:42.612Z,-1.44
2023-11-30T22:53:11.581Z,-1.44
2023-11-30T22:55:39.883Z,-1.40
2023-11-30T22:58:06.618Z,-1.36
2023-11-30T23:00:35.678Z,-1.32
2023-11-30T23:03:02.663Z,-1.31
2023-11-30T23:05:29.381Z,-1.29
2023-11-30T23:07:58.291Z,-1.25
2023-11-30T23:10:24.822Z,-1.23
2023-11-30T23:12:54.061Z,-1.21
2023-11-30T23:15:20.629Z,-1.20
2023-11-30T23:17:49.676Z,-1.19
2023-11-30T23:20:16.338Z,-1.17
2023-11-30T23:22:43.297Z,-1.19
2023-11-30T23:25:10.402Z,-1.19
2023-11-30T23:27:36.956Z,-1.18
2023-11-30T23:30:05.996Z,-1.16
2023-11-30T23:32:32.747Z,-1.16
2023-11-30T23:34:59.420Z,-1.16
2023-11-30T23:37:26.052Z,-1.16
2023-11-30T23:39:55.093Z,-1.14
2023-11-30T23:42:21.746Z,-1.14
2023-11-30T23:44:48.701Z,-1.12
2023-11-30T23:47:15.361Z,-1.15
2023-11-30T23:49:42.214Z,-1.15
2023-11-30T23:52:08.781Z,-1.14
2023-11-30T23:54:37.807Z,-1.15
2023-11-30T23:57:06.217Z,-1.13
2023-11-30T23:59:35.123Z,-1.12
